createdAt,value
2017-12-13T00:00:25.790Z,0
2017-12-13T00:01:34.999Z,0
2017-12-13T00:02:43.684Z,0
2017-12-13T00:03:52.613Z,0
2017-12-13T00:05:01.816Z,0
2017-12-13T00:06:11.292Z,0
2017-12-13T00:07:20.506Z,0
2017-12-13T00:08:29.990Z,0
2017-12-13T00:09:38.954Z,0
2017-12-13T00:10:48.152Z,0
2017-12-13T00:11:56.851Z,0
2017-12-13T00:13:06.570Z,0
2017-12-13T00:14:15.762Z,0
2017-12-13T00:15:25.227Z,0
2017-12-13T00:16:34.175Z,0
2017-12-13T00:17:43.702Z,0
2017-12-13T00:18:52.913Z,0
2017-12-13T00:20:01.859Z,0
2017-12-13T00:21:11.073Z,0
2017-12-13T00:22:20.048Z,0
2017-12-13T00:23:30.241Z,0
2017-12-13T00:24:39.183Z,0
2017-12-13T00:25:47.887Z,0
2017-12-13T00:26:56.558Z,0
2017-12-13T00:28:05.767Z,0
2017-12-13T00:29:15.001Z,0
2017-12-13T00:30:23.692Z,0
2017-12-13T00:31:32.625Z,0
2017-12-13T00:32:41.835Z,0
2017-12-13T00:33:50.787Z,0
2017-12-13T00:34:59.724Z,0
2017-12-13T00:36:08.656Z,0
2017-12-13T00:37:17.622Z,0
2017-12-13T00:38:26.837Z,0
2017-12-13T00:39:35.767Z,0
2017-12-13T00:40:45.515Z,0
2017-12-13T00:41:54.720Z,0
2017-12-13T00:43:03.944Z,0
2017-12-13T00:44:13.138Z,0
2017-12-13T00:45:22.604Z,0
2017-12-13T00:46:31.300Z,0
2017-12-13T00:47:40.527Z,0
2017-12-13T00:48:49.732Z,0
2017-12-13T00:49:58.435Z,0
2017-12-13T00:51:07.631Z,0
2017-12-13T00:52:16.303Z,0
2017-12-13T00:53:25.507Z,0
2017-12-13T00:54:34.459Z,0
2017-12-13T00:55:43.919Z,0
2017-12-13T00:56:52.853Z,0
2017-12-13T00:58:02.311Z,0
2017-12-13T00:59:11.508Z,0
2017-12-13T01:00:20.968Z,0
2017-12-13T01:01:30.167Z,0
2017-12-13T01:02:39.379Z,0
2017-12-13T01:03:48.316Z,0
2017-12-13T01:04:58.048Z,0
2017-12-13T01:06:07.238Z,0
2017-12-13T01:07:16.696Z,0
2017-12-13T01:08:25.634Z,0
2017-12-13T01:09:35.361Z,0
2017-12-13T01:10:44.565Z,0
2017-12-13T01:11:54.068Z,0
2017-12-13T01:13:03.521Z,0
2017-12-13T01:14:12.207Z,0
2017-12-13T01:15:21.404Z,0
2017-12-13T01:16:30.349Z,0
2017-12-13T01:17:39.298Z,0
2017-12-13T01:18:48.489Z,0
2017-12-13T01:19:57.425Z,0
2017-12-13T01:21:06.361Z,0
2017-12-13T01:22:15.307Z,0
2017-12-13T01:23:24.506Z,0
2017-12-13T01:24:33.711Z,0
2017-12-13T01:25:42.911Z,0
2017-12-13T01:26:51.852Z,0
2017-12-13T01:28:01.306Z,0
2017-12-13T01:29:10.243Z,0
2017-12-13T01:30:19.436Z,0
2017-12-13T01:31:28.902Z,0
2017-12-13T01:32:38.094Z,0
2017-12-13T01:33:47.016Z,0
2017-12-13T01:34:56.469Z,0
2017-12-13T01:36:05.400Z,0
2017-12-13T01:37:14.618Z,0
2017-12-13T01:38:23.841Z,0
2017-12-13T01:39:32.516Z,0
2017-12-13T01:40:41.721Z,0
2017-12-13T01:41:50.662Z,0
2017-12-13T01:42:59.596Z,0
2017-12-13T01:44:08.799Z,0
2017-12-13T01:45:17.730Z,0
2017-12-13T01:46:26.922Z,0
2017-12-13T01:47:35.601Z,0
2017-12-13T01:48:44.542Z,0
2017-12-13T01:49:53.749Z,0
2017-12-13T01:51:02.689Z,0
2017-12-13T01:52:11.618Z,0
2017-12-13T01:53:20.563Z,0
2017-12-13T01:54:29.767Z,0
2017-12-13T01:55:38.434Z,0
2017-12-13T01:56:47.117Z,0
2017-12-13T01:57:56.329Z,0
2017-12-13T01:59:05.544Z,0
2017-12-13T02:00:14.752Z,0
2017-12-13T02:01:23.706Z,0
2017-12-13T02:02:32.657Z,0
2017-12-13T02:03:41.864Z,0
2017-12-13T02:04:51.091Z,0
2017-12-13T02:06:00.021Z,0
2017-12-13T02:07:08.964Z,0
2017-12-13T02:08:17.896Z,0
2017-12-13T02:09:26.866Z,0
2017-12-13T02:10:36.316Z,0
2017-12-13T02:11:44.989Z,0
2017-12-13T02:12:53.665Z,0
2017-12-13T02:14:02.860Z,0
2017-12-13T02:15:12.064Z,0
2017-12-13T02:16:21.264Z,0
2017-12-13T02:17:30.483Z,0
2017-12-13T02:18:39.958Z,0
2017-12-13T02:19:49.159Z,0
2017-12-13T02:20:58.368Z,0
2017-12-13T02:22:07.046Z,0
2017-12-13T02:23:16.263Z,0
2017-12-13T02:24:25.725Z,0
2017-12-13T02:25:35.450Z,0
2017-12-13T02:26:44.391Z,0
2017-12-13T02:27:53.599Z,0
2017-12-13T02:29:02.282Z,0
2017-12-13T02:30:11.242Z,0
2017-12-13T02:31:20.713Z,0
2017-12-13T02:32:29.667Z,0
2017-12-13T02:33:38.893Z,0
2017-12-13T02:34:48.422Z,0
2017-12-13T02:35:57.617Z,0
2017-12-13T02:37:06.804Z,0
2017-12-13T02:38:16.014Z,0
2017-12-13T02:39:24.695Z,0
2017-12-13T02:40:33.361Z,0
2017-12-13T02:41:42.569Z,0
2017-12-13T02:42:52.046Z,0
2017-12-13T02:44:01.307Z,0
2017-12-13T02:45:10.504Z,0
2017-12-13T02:46:20.490Z,0
2017-12-13T02:47:29.427Z,0
2017-12-13T02:48:38.632Z,0
2017-12-13T02:49:48.131Z,0
2017-12-13T02:50:57.619Z,0
2017-12-13T02:52:06.557Z,0
2017-12-13T02:53:16.300Z,0
2017-12-13T02:54:25.263Z,0
2017-12-13T02:55:34.030Z,0
2017-12-13T02:56:43.280Z,0
2017-12-13T02:57:52.475Z,0
2017-12-13T02:59:01.936Z,0
2017-12-13T03:00:10.605Z,0
2017-12-13T03:01:20.059Z,0
2017-12-13T03:02:28.997Z,0
2017-12-13T03:03:38.477Z,0
2017-12-13T03:04:47.410Z,0
2017-12-13T03:05:56.342Z,0
2017-12-13T03:07:05.300Z,0
2017-12-13T03:08:14.264Z,0
2017-12-13T03:09:23.464Z,0
2017-12-13T03:10:32.666Z,0
2017-12-13T03:11:41.882Z,0
2017-12-13T03:12:50.812Z,0
2017-12-13T03:13:59.745Z,0
2017-12-13T03:15:09.208Z,0
2017-12-13T03:16:18.412Z,0
2017-12-13T03:17:27.393Z,0
2017-12-13T03:18:36.577Z,0
2017-12-13T03:19:45.844Z,0
2017-12-13T03:20:54.785Z,0
2017-12-13T03:22:04.017Z,0
2017-12-13T03:23:12.692Z,0
2017-12-13T03:24:21.619Z,0
2017-12-13T03:25:30.615Z,0
2017-12-13T03:26:40.080Z,0
2017-12-13T03:27:49.272Z,0
2017-12-13T03:28:58.274Z,0
2017-12-13T03:30:07.222Z,0
2017-12-13T03:31:17.224Z,0
2017-12-13T03:32:26.427Z,0
2017-12-13T03:33:35.876Z,0
2017-12-13T03:34:45.241Z,0
2017-12-13T03:35:54.174Z,0
2017-12-13T03:37:03.102Z,0
2017-12-13T03:38:12.028Z,0
2017-12-13T03:39:20.980Z,0
2017-12-13T03:40:29.906Z,0
2017-12-13T03:41:39.111Z,0
2017-12-13T03:42:48.319Z,0
2017-12-13T03:43:57.249Z,0
2017-12-13T03:45:06.184Z,0
2017-12-13T03:46:15.117Z,0
2017-12-13T03:47:23.792Z,0
2017-12-13T03:48:33.240Z,0
2017-12-13T03:49:42.719Z,0
2017-12-13T03:50:51.438Z,0
2017-12-13T03:52:00.324Z,0
2017-12-13T03:53:10.053Z,0
2017-12-13T03:54:19.252Z,0
2017-12-13T03:55:28.736Z,0
2017-12-13T03:56:37.684Z,0
2017-12-13T03:57:47.145Z,0
2017-12-13T03:58:56.608Z,0
2017-12-13T04:00:05.838Z,0
2017-12-13T04:01:15.040Z,0
2017-12-13T04:02:24.232Z,0
2017-12-13T04:03:32.924Z,0
2017-12-13T04:04:41.869Z,0
2017-12-13T04:05:51.328Z,0
2017-12-13T04:07:00.804Z,0
2017-12-13T04:08:09.750Z,0
2017-12-13T04:09:18.693Z,0
2017-12-13T04:10:27.644Z,0
2017-12-13T04:11:37.108Z,0
2017-12-13T04:12:46.059Z,0
2017-12-13T04:13:55.286Z,0
2017-12-13T04:15:04.228Z,0
2017-12-13T04:16:13.821Z,0
2017-12-13T04:17:23.545Z,0
2017-12-13T04:18:32.481Z,0
2017-12-13T04:19:41.149Z,0
2017-12-13T04:20:50.366Z,0
2017-12-13T04:21:59.302Z,0
2017-12-13T04:23:08.763Z,0
2017-12-13T04:24:17.710Z,0
2017-12-13T04:25:27.178Z,0
2017-12-13T04:26:37.159Z,0
2017-12-13T04:27:46.089Z,0
2017-12-13T04:28:55.318Z,0
2017-12-13T04:30:04.532Z,0
2017-12-13T04:31:13.776Z,0
2017-12-13T04:32:23.304Z,0
2017-12-13T04:33:32.809Z,0
2017-12-13T04:34:42.002Z,0
2017-12-13T04:35:50.736Z,0
2017-12-13T04:37:00.195Z,0
2017-12-13T04:38:09.383Z,0
2017-12-13T04:39:18.060Z,0
2017-12-13T04:40:27.005Z,0
2017-12-13T04:41:36.197Z,0
2017-12-13T04:42:44.882Z,0
2017-12-13T04:43:53.843Z,0
2017-12-13T04:45:03.038Z,0
2017-12-13T04:46:12.513Z,0
2017-12-13T04:47:21.199Z,0
2017-12-13T04:48:30.402Z,0
2017-12-13T04:49:39.356Z,0
2017-12-13T04:50:48.021Z,0
2017-12-13T04:51:57.214Z,0
2017-12-13T04:53:06.161Z,0
2017-12-13T04:54:15.121Z,0
2017-12-13T04:55:24.324Z,0
2017-12-13T04:56:33.004Z,0
2017-12-13T04:57:41.970Z,0
2017-12-13T04:58:51.192Z,0
2017-12-13T05:00:00.398Z,0
2017-12-13T05:01:10.135Z,0
2017-12-13T05:02:19.127Z,0
2017-12-13T05:03:28.064Z,0
2017-12-13T05:04:36.736Z,0
2017-12-13T05:05:45.423Z,0
2017-12-13T05:06:54.618Z,0
2017-12-13T05:08:03.811Z,0
2017-12-13T05:09:12.779Z,0
2017-12-13T05:10:21.982Z,0
2017-12-13T05:11:30.945Z,0
2017-12-13T05:12:40.420Z,0
2017-12-13T05:13:49.361Z,0
2017-12-13T05:14:58.025Z,0
2017-12-13T05:16:07.488Z,0
2017-12-13T05:17:16.425Z,0
2017-12-13T05:18:25.382Z,0
2017-12-13T05:19:34.093Z,0
2017-12-13T05:20:43.040Z,0
2017-12-13T05:21:51.711Z,0
2017-12-13T05:23:00.902Z,0
2017-12-13T05:24:10.099Z,0
2017-12-13T05:25:19.302Z,0
2017-12-13T05:26:28.503Z,0
2017-12-13T05:27:37.231Z,0
2017-12-13T05:28:46.172Z,0
2017-12-13T05:29:54.854Z,0
2017-12-13T05:31:04.311Z,0
2017-12-13T05:32:12.984Z,0
2017-12-13T05:33:21.932Z,0
2017-12-13T05:34:30.608Z,0
2017-12-13T05:35:39.628Z,0
2017-12-13T05:36:49.110Z,0
2017-12-13T05:37:58.309Z,0
2017-12-13T05:39:06.996Z,0
2017-12-13T05:40:16.464Z,0
2017-12-13T05:41:25.659Z,0
2017-12-13T05:42:34.896Z,0
2017-12-13T05:43:43.840Z,0
2017-12-13T05:44:53.075Z,0
2017-12-13T05:46:02.301Z,0
2017-12-13T05:47:11.520Z,0
2017-12-13T05:48:20.515Z,0
2017-12-13T05:49:29.503Z,0
2017-12-13T05:50:38.446Z,0
2017-12-13T05:51:47.398Z,0
2017-12-13T05:52:56.594Z,0
2017-12-13T05:54:05.579Z,0
2017-12-13T05:55:14.534Z,0
2017-12-13T05:56:23.739Z,0
2017-12-13T05:57:32.947Z,0
2017-12-13T05:58:41.886Z,0
2017-12-13T05:59:50.598Z,0
2017-12-13T06:00:59.543Z,0
2017-12-13T06:02:08.746Z,0
2017-12-13T06:03:17.427Z,0
2017-12-13T06:04:26.638Z,0
2017-12-13T06:05:35.599Z,0
2017-12-13T06:06:44.812Z,0
2017-12-13T06:07:53.767Z,0
2017-12-13T06:09:02.964Z,0
2017-12-13T06:10:11.900Z,0
2017-12-13T06:11:20.839Z,0
2017-12-13T06:12:30.301Z,0
2017-12-13T06:13:40.021Z,0
2017-12-13T06:14:48.953Z,0
2017-12-13T06:15:58.424Z,0
2017-12-13T06:17:07.630Z,0
2017-12-13T06:18:16.830Z,0
2017-12-13T06:19:25.780Z,0
2017-12-13T06:20:34.733Z,0
2017-12-13T06:21:44.190Z,0
2017-12-13T06:22:53.406Z,0
2017-12-13T06:24:02.346Z,0
2017-12-13T06:25:11.297Z,0
2017-12-13T06:26:20.507Z,0
2017-12-13T06:27:29.451Z,0
2017-12-13T06:28:38.399Z,0
2017-12-13T06:29:47.617Z,0
2017-12-13T06:30:56.844Z,0
2017-12-13T06:32:06.043Z,0
2017-12-13T06:33:14.978Z,0
2017-12-13T06:34:23.662Z,0
2017-12-13T06:35:32.605Z,0
2017-12-13T06:36:41.550Z,0
2017-12-13T06:37:50.489Z,0
2017-12-13T06:38:59.169Z,0
2017-12-13T06:40:08.116Z,0
2017-12-13T06:41:17.086Z,0
2017-12-13T06:42:25.758Z,0
2017-12-13T06:43:34.756Z,0
2017-12-13T06:44:43.682Z,0
2017-12-13T06:45:52.358Z,0
2017-12-13T06:47:01.571Z,0
2017-12-13T06:48:10.758Z,0
2017-12-13T06:49:19.445Z,0
2017-12-13T06:50:28.644Z,0
2017-12-13T06:51:37.319Z,0
2017-12-13T06:52:46.572Z,0
2017-12-13T06:53:55.529Z,0
2017-12-13T06:55:04.468Z,0
2017-12-13T06:56:13.405Z,0
2017-12-13T06:57:22.618Z,0
2017-12-13T06:58:31.567Z,0
2017-12-13T06:59:40.250Z,4
2017-12-13T07:00:49.205Z,4
2017-12-13T07:01:58.147Z,4
2017-12-13T07:03:07.364Z,0
2017-12-13T07:04:16.567Z,0
2017-12-13T07:05:25.768Z,4
2017-12-13T07:06:34.981Z,4
2017-12-13T07:07:43.921Z,4
2017-12-13T07:08:52.597Z,4
2017-12-13T07:10:01.810Z,4
2017-12-13T07:11:10.757Z,4
2017-12-13T07:12:19.684Z,8
2017-12-13T07:13:28.359Z,4
2017-12-13T07:14:37.035Z,8
2017-12-13T07:15:45.968Z,8
2017-12-13T07:16:55.439Z,12
2017-12-13T07:18:04.132Z,12
2017-12-13T07:19:13.321Z,12
2017-12-13T07:20:22.522Z,16
2017-12-13T07:21:31.978Z,16
2017-12-13T07:22:40.914Z,24
2017-12-13T07:23:49.883Z,28
2017-12-13T07:24:58.828Z,32
2017-12-13T07:26:08.297Z,32
2017-12-13T07:27:16.976Z,36
2017-12-13T07:28:26.184Z,44
2017-12-13T07:29:34.921Z,44
2017-12-13T07:30:43.876Z,44
2017-12-13T07:31:52.836Z,44
2017-12-13T07:33:02.048Z,52
2017-12-13T07:34:11.520Z,56
2017-12-13T07:35:20.476Z,60
2017-12-13T07:36:29.701Z,68
2017-12-13T07:37:38.912Z,80
2017-12-13T07:38:47.865Z,88
2017-12-13T07:39:57.089Z,96
2017-12-13T07:41:06.053Z,108
2017-12-13T07:42:15.026Z,112
2017-12-13T07:43:24.059Z,100
2017-12-13T07:44:33.015Z,84
2017-12-13T07:45:41.967Z,76
2017-12-13T07:46:51.179Z,68
2017-12-13T07:48:00.397Z,64
2017-12-13T07:49:09.606Z,72
2017-12-13T07:50:18.820Z,60
2017-12-13T07:51:27.764Z,48
2017-12-13T07:52:36.739Z,40
2017-12-13T07:53:45.675Z,36
2017-12-13T07:54:55.029Z,40
2017-12-13T07:56:04.239Z,44
2017-12-13T07:57:13.174Z,44
2017-12-13T07:58:22.122Z,52
2017-12-13T07:59:31.062Z,60
2017-12-13T08:00:40.286Z,84
2017-12-13T08:01:49.341Z,84
2017-12-13T08:02:58.558Z,108
2017-12-13T08:04:07.801Z,112
2017-12-13T08:05:16.741Z,132
2017-12-13T08:06:25.679Z,144
2017-12-13T08:07:34.629Z,204
2017-12-13T08:08:43.576Z,232
2017-12-13T08:09:52.774Z,216
2017-12-13T08:11:01.458Z,244
2017-12-13T08:12:10.676Z,220
2017-12-13T08:13:19.646Z,240
2017-12-13T08:14:28.897Z,228
2017-12-13T08:15:37.629Z,236
2017-12-13T08:16:47.172Z,200
2017-12-13T08:17:55.898Z,184
2017-12-13T08:19:04.594Z,208
2017-12-13T08:20:14.141Z,240
2017-12-13T08:21:23.918Z,288
2017-12-13T08:22:33.162Z,280
2017-12-13T08:23:41.886Z,320
2017-12-13T08:24:51.414Z,288
2017-12-13T08:26:00.434Z,328
2017-12-13T08:27:10.112Z,272
2017-12-13T08:28:19.352Z,320
2017-12-13T08:29:28.592Z,348
2017-12-13T08:30:37.890Z,320
2017-12-13T08:31:46.592Z,304
2017-12-13T08:32:55.815Z,300
2017-12-13T08:34:04.796Z,272
2017-12-13T08:35:14.283Z,300
2017-12-13T08:36:22.983Z,296
2017-12-13T08:37:32.465Z,288
2017-12-13T08:38:41.755Z,276
2017-12-13T08:39:51.224Z,264
2017-12-13T08:41:00.177Z,256
2017-12-13T08:42:09.386Z,232
2017-12-13T08:43:18.969Z,200
2017-12-13T08:44:28.435Z,180
2017-12-13T08:45:37.384Z,164
2017-12-13T08:46:46.343Z,160
2017-12-13T08:47:55.050Z,156
2017-12-13T08:49:04.516Z,184
2017-12-13T08:50:13.238Z,188
2017-12-13T08:51:22.458Z,164
2017-12-13T08:52:31.437Z,152
2017-12-13T08:53:40.408Z,164
2017-12-13T08:54:49.645Z,144
2017-12-13T08:55:59.132Z,168
2017-12-13T08:57:08.092Z,156
2017-12-13T08:58:16.788Z,180
2017-12-13T08:59:26.016Z,172
2017-12-13T09:00:34.963Z,172
2017-12-13T09:01:44.954Z,156
2017-12-13T09:02:53.913Z,136
2017-12-13T09:04:03.127Z,128
2017-12-13T09:05:12.601Z,132
2017-12-13T09:06:22.334Z,148
2017-12-13T09:07:31.542Z,160
2017-12-13T09:08:41.144Z,164
2017-12-13T09:09:50.363Z,188
2017-12-13T09:10:59.912Z,192
2017-12-13T09:12:09.157Z,204
2017-12-13T09:13:18.383Z,236
2017-12-13T09:14:27.856Z,272
2017-12-13T09:15:36.794Z,284
2017-12-13T09:16:46.007Z,328
2017-12-13T09:17:54.959Z,340
2017-12-13T09:19:04.704Z,328
2017-12-13T09:20:13.914Z,300
2017-12-13T09:21:23.150Z,284
2017-12-13T09:22:32.092Z,284
2017-12-13T09:23:41.319Z,212
2017-12-13T09:24:50.042Z,192
2017-12-13T09:25:59.266Z,160
2017-12-13T09:27:08.475Z,148
2017-12-13T09:28:17.712Z,148
2017-12-13T09:29:27.199Z,124
2017-12-13T09:30:35.892Z,120
2017-12-13T09:31:44.603Z,116
2017-12-13T09:32:54.090Z,112
2017-12-13T09:34:03.321Z,112
2017-12-13T09:35:12.023Z,108
2017-12-13T09:36:21.507Z,100
2017-12-13T09:37:30.988Z,92
2017-12-13T09:38:40.728Z,84
2017-12-13T09:39:49.408Z,76
2017-12-13T09:40:59.145Z,76
2017-12-13T09:42:08.630Z,76
2017-12-13T09:43:17.590Z,76
2017-12-13T09:44:27.110Z,76
2017-12-13T09:45:36.581Z,88
2017-12-13T09:46:45.557Z,92
2017-12-13T09:47:54.248Z,92
2017-12-13T09:49:03.211Z,92
2017-12-13T09:50:12.484Z,100
2017-12-13T09:51:21.440Z,100
2017-12-13T09:52:31.240Z,100
2017-12-13T09:53:39.939Z,96
2017-12-13T09:54:48.983Z,104
2017-12-13T09:55:58.026Z,116
2017-12-13T09:57:07.495Z,116
2017-12-13T09:58:16.986Z,124
2017-12-13T09:59:26.028Z,136
2017-12-13T10:00:35.248Z,132
2017-12-13T10:01:44.468Z,172
2017-12-13T10:02:53.438Z,160
2017-12-13T10:04:02.400Z,168
2017-12-13T10:05:11.648Z,148
2017-12-13T10:06:21.136Z,152
2017-12-13T10:07:30.359Z,176
2017-12-13T10:08:39.634Z,144
2017-12-13T10:09:49.112Z,176
2017-12-13T10:10:57.804Z,196
2017-12-13T10:12:07.048Z,168
2017-12-13T10:13:16.509Z,160
2017-12-13T10:14:26.266Z,204
2017-12-13T10:15:35.222Z,196
2017-12-13T10:16:44.191Z,160
2017-12-13T10:17:53.702Z,276
2017-12-13T10:19:02.929Z,208
2017-12-13T10:20:12.178Z,236
2017-12-13T10:21:21.423Z,252
2017-12-13T10:22:30.901Z,156
2017-12-13T10:23:40.122Z,248
2017-12-13T10:24:49.615Z,280
2017-12-13T10:25:58.568Z,212
2017-12-13T10:27:08.051Z,216
2017-12-13T10:28:16.989Z,252
2017-12-13T10:29:25.965Z,188
2017-12-13T10:30:34.921Z,156
2017-12-13T10:31:43.642Z,240
2017-12-13T10:32:52.857Z,172
2017-12-13T10:34:01.622Z,172
2017-12-13T10:35:10.859Z,216
2017-12-13T10:36:20.107Z,176
2017-12-13T10:37:29.342Z,220
2017-12-13T10:38:38.845Z,184
2017-12-13T10:39:48.321Z,164
2017-12-13T10:40:57.040Z,220
2017-12-13T10:42:06.513Z,180
2017-12-13T10:43:15.228Z,192
2017-12-13T10:44:24.701Z,212
2017-12-13T10:45:33.900Z,208
2017-12-13T10:46:42.850Z,264
2017-12-13T10:47:52.088Z,216
2017-12-13T10:49:01.297Z,220
2017-12-13T10:50:10.769Z,236
2017-12-13T10:51:19.987Z,212
2017-12-13T10:52:29.216Z,204
2017-12-13T10:53:38.434Z,232
2017-12-13T10:54:47.920Z,264
2017-12-13T10:55:57.389Z,260
2017-12-13T10:57:06.612Z,260
2017-12-13T10:58:15.583Z,288
2017-12-13T10:59:24.800Z,272
2017-12-13T11:00:34.302Z,264
2017-12-13T11:01:43.253Z,300
2017-12-13T11:02:52.470Z,288
2017-12-13T11:04:01.719Z,224
2017-12-13T11:05:10.932Z,272
2017-12-13T11:06:20.419Z,244
2017-12-13T11:07:29.663Z,268
2017-12-13T11:08:38.696Z,216
2017-12-13T11:09:48.489Z,216
2017-12-13T11:10:57.962Z,264
2017-12-13T11:12:06.662Z,188
2017-12-13T11:13:15.894Z,236
2017-12-13T11:14:24.931Z,240
2017-12-13T11:15:34.132Z,216
2017-12-13T11:16:43.095Z,192
2017-12-13T11:17:51.791Z,228
2017-12-13T11:19:00.745Z,240
2017-12-13T11:20:09.427Z,200
2017-12-13T11:21:18.644Z,244
2017-12-13T11:22:28.120Z,248
2017-12-13T11:23:37.362Z,272
2017-12-13T11:24:46.058Z,268
2017-12-13T11:25:55.558Z,280
2017-12-13T11:27:04.782Z,312
2017-12-13T11:28:13.726Z,292
2017-12-13T11:29:23.219Z,304
2017-12-13T11:30:32.441Z,264
2017-12-13T11:31:41.127Z,304
2017-12-13T11:32:50.350Z,276
2017-12-13T11:33:59.575Z,248
2017-12-13T11:35:09.059Z,228
2017-12-13T11:36:17.761Z,256
2017-12-13T11:37:26.708Z,276
2017-12-13T11:38:35.943Z,240
2017-12-13T11:39:44.886Z,244
2017-12-13T11:40:54.373Z,256
2017-12-13T11:42:03.352Z,276
2017-12-13T11:43:12.301Z,268
2017-12-13T11:44:21.236Z,252
2017-12-13T11:45:30.443Z,212
2017-12-13T11:46:39.914Z,212
2017-12-13T11:47:49.136Z,208
2017-12-13T11:48:58.891Z,236
2017-12-13T11:50:08.380Z,216
2017-12-13T11:51:17.855Z,208
2017-12-13T11:52:27.254Z,216
2017-12-13T11:53:36.223Z,216
2017-12-13T11:54:45.441Z,204
2017-12-13T11:55:54.660Z,212
2017-12-13T11:57:04.388Z,208
2017-12-13T11:58:13.879Z,224
2017-12-13T11:59:23.626Z,224
2017-12-13T12:00:32.838Z,224
2017-12-13T12:01:41.791Z,216
2017-12-13T12:02:50.740Z,200
2017-12-13T12:03:59.951Z,196
2017-12-13T12:05:09.175Z,200
2017-12-13T12:06:18.134Z,192
2017-12-13T12:07:27.073Z,196
2017-12-13T12:08:36.326Z,208
2017-12-13T12:09:45.605Z,224
2017-12-13T12:10:54.574Z,228
2017-12-13T12:12:03.539Z,228
2017-12-13T12:13:12.765Z,224
2017-12-13T12:14:22.233Z,232
2017-12-13T12:15:31.718Z,224
2017-12-13T12:16:41.015Z,228
2017-12-13T12:17:50.245Z,228
2017-12-13T12:18:59.204Z,220
2017-12-13T12:20:08.735Z,208
2017-12-13T12:21:17.716Z,208
2017-12-13T12:22:26.947Z,196
2017-12-13T12:23:35.643Z,184
2017-12-13T12:24:44.676Z,184
2017-12-13T12:25:53.650Z,188
2017-12-13T12:27:02.361Z,192
2017-12-13T12:28:11.334Z,200
2017-12-13T12:29:20.013Z,204
2017-12-13T12:30:29.283Z,196
2017-12-13T12:31:39.015Z,188
2017-12-13T12:32:48.013Z,184
2017-12-13T12:33:57.546Z,176
2017-12-13T12:35:06.771Z,164
2017-12-13T12:36:15.987Z,160
2017-12-13T12:37:24.963Z,160
2017-12-13T12:38:34.438Z,160
2017-12-13T12:39:43.136Z,152
2017-12-13T12:40:52.091Z,160
2017-12-13T12:42:01.300Z,172
2017-12-13T12:43:10.780Z,168
2017-12-13T12:44:20.001Z,156
2017-12-13T12:45:29.207Z,140
2017-12-13T12:46:38.429Z,120
2017-12-13T12:47:47.642Z,120
2017-12-13T12:48:57.134Z,108
2017-12-13T12:50:05.849Z,108
2017-12-13T12:51:15.063Z,108
2017-12-13T12:52:24.035Z,108
2017-12-13T12:53:33.006Z,104
2017-12-13T12:54:42.212Z,112
2017-12-13T12:55:51.450Z,116
2017-12-13T12:57:00.419Z,108
2017-12-13T12:58:09.724Z,108
2017-12-13T12:59:19.195Z,120
2017-12-13T13:00:28.156Z,116
2017-12-13T13:01:37.932Z,112
2017-12-13T13:02:47.442Z,104
2017-12-13T13:03:56.651Z,112
2017-12-13T13:05:06.125Z,132
2017-12-13T13:06:15.329Z,148
2017-12-13T13:07:24.527Z,172
2017-12-13T13:08:33.750Z,160
2017-12-13T13:09:43.230Z,164
2017-12-13T13:10:52.184Z,172
2017-12-13T13:12:01.136Z,184
2017-12-13T13:13:10.109Z,172
2017-12-13T13:14:19.327Z,176
2017-12-13T13:15:28.285Z,160
2017-12-13T13:16:36.983Z,160
2017-12-13T13:17:45.671Z,164
2017-12-13T13:18:55.154Z,160
2017-12-13T13:20:04.357Z,152
2017-12-13T13:21:13.358Z,148
2017-12-13T13:22:22.056Z,144
2017-12-13T13:23:31.313Z,140
2017-12-13T13:24:40.783Z,136
2017-12-13T13:25:49.733Z,132
2017-12-13T13:26:58.963Z,132
2017-12-13T13:28:08.440Z,132
2017-12-13T13:29:17.698Z,124
2017-12-13T13:30:26.915Z,116
2017-12-13T13:31:35.865Z,116
2017-12-13T13:32:45.365Z,112
2017-12-13T13:33:54.311Z,120
2017-12-13T13:35:03.267Z,120
2017-12-13T13:36:12.475Z,124
2017-12-13T13:37:21.420Z,128
2017-12-13T13:38:30.390Z,140
2017-12-13T13:39:39.355Z,132
2017-12-13T13:40:48.569Z,136
2017-12-13T13:41:57.529Z,140
2017-12-13T13:43:06.223Z,168
2017-12-13T13:44:15.444Z,176
2017-12-13T13:45:24.435Z,176
2017-12-13T13:46:33.655Z,168
2017-12-13T13:47:42.907Z,156
2017-12-13T13:48:52.133Z,148
2017-12-13T13:50:01.141Z,132
2017-12-13T13:51:10.661Z,124
2017-12-13T13:52:19.347Z,124
2017-12-13T13:53:30.310Z,124
2017-12-13T13:54:40.053Z,136
2017-12-13T13:55:48.742Z,132
2017-12-13T13:56:57.703Z,128
2017-12-13T13:58:06.925Z,124
2017-12-13T13:59:15.871Z,116
2017-12-13T14:00:25.118Z,136
2017-12-13T14:01:34.658Z,136
2017-12-13T14:02:44.418Z,128
2017-12-13T14:03:53.656Z,120
2017-12-13T14:05:03.126Z,120
2017-12-13T14:06:12.602Z,120
2017-12-13T14:07:21.823Z,112
2017-12-13T14:08:31.059Z,96
2017-12-13T14:09:40.785Z,108
2017-12-13T14:10:50.527Z,108
2017-12-13T14:11:59.466Z,96
2017-12-13T14:13:08.704Z,92
2017-12-13T14:14:17.655Z,88
2017-12-13T14:15:26.867Z,92
2017-12-13T14:16:36.083Z,92
2017-12-13T14:17:45.316Z,84
2017-12-13T14:18:54.309Z,76
2017-12-13T14:20:03.295Z,60
2017-12-13T14:21:12.247Z,64
2017-12-13T14:22:21.472Z,68
2017-12-13T14:23:30.492Z,72
2017-12-13T14:24:40.269Z,92
2017-12-13T14:25:49.750Z,120
2017-12-13T14:26:59.789Z,148
2017-12-13T14:28:09.018Z,156
2017-12-13T14:29:18.790Z,128
2017-12-13T14:30:28.287Z,144
2017-12-13T14:31:37.792Z,148
2017-12-13T14:32:47.283Z,116
2017-12-13T14:33:56.559Z,116
2017-12-13T14:35:05.790Z,128
2017-12-13T14:36:15.017Z,132
2017-12-13T14:37:24.227Z,120
2017-12-13T14:38:32.909Z,104
2017-12-13T14:39:42.400Z,100
2017-12-13T14:40:51.625Z,104
2017-12-13T14:42:00.852Z,92
2017-12-13T14:43:10.323Z,100
2017-12-13T14:44:19.546Z,120
2017-12-13T14:45:28.522Z,144
2017-12-13T14:46:37.479Z,164
2017-12-13T14:47:46.151Z,168
2017-12-13T14:48:54.827Z,156
2017-12-13T14:50:03.826Z,140
2017-12-13T14:51:13.301Z,124
2017-12-13T14:52:22.251Z,108
2017-12-13T14:53:31.457Z,84
2017-12-13T14:54:40.420Z,68
2017-12-13T14:55:50.413Z,64
2017-12-13T14:56:59.951Z,64
2017-12-13T14:58:08.663Z,56
2017-12-13T14:59:18.204Z,60
2017-12-13T15:00:27.160Z,64
2017-12-13T15:01:36.104Z,60
2017-12-13T15:02:45.565Z,60
2017-12-13T15:03:54.550Z,60
2017-12-13T15:05:04.029Z,56
2017-12-13T15:06:12.978Z,52
2017-12-13T15:07:22.184Z,48
2017-12-13T15:08:31.403Z,48
2017-12-13T15:09:40.121Z,44
2017-12-13T15:10:49.336Z,40
2017-12-13T15:11:58.026Z,32
2017-12-13T15:13:07.520Z,32
2017-12-13T15:14:16.809Z,32
2017-12-13T15:15:25.507Z,32
2017-12-13T15:16:34.987Z,32
2017-12-13T15:17:44.212Z,24
2017-12-13T15:18:53.166Z,20
2017-12-13T15:20:02.393Z,20
2017-12-13T15:21:11.865Z,16
2017-12-13T15:22:21.102Z,12
2017-12-13T15:23:30.309Z,12
2017-12-13T15:24:39.004Z,12
2017-12-13T15:25:47.988Z,12
2017-12-13T15:26:57.556Z,12
2017-12-13T15:28:06.771Z,12
2017-12-13T15:29:15.746Z,12
2017-12-13T15:30:24.996Z,12
2017-12-13T15:31:34.471Z,8
2017-12-13T15:32:43.699Z,8
2017-12-13T15:33:53.184Z,4
2017-12-13T15:35:01.879Z,8
2017-12-13T15:36:11.093Z,4
2017-12-13T15:37:20.321Z,0
2017-12-13T15:38:29.545Z,4
2017-12-13T15:39:38.816Z,4
2017-12-13T15:40:48.334Z,4
2017-12-13T15:41:56.994Z,4
2017-12-13T15:43:05.674Z,0
2017-12-13T15:44:14.887Z,0
2017-12-13T15:45:24.676Z,0
2017-12-13T15:46:34.153Z,0
2017-12-13T15:47:43.113Z,0
2017-12-13T15:48:52.116Z,0
2017-12-13T15:50:01.024Z,0
2017-12-13T15:51:10.088Z,0
2017-12-13T15:52:19.320Z,0
2017-12-13T15:53:28.557Z,0
2017-12-13T15:54:37.531Z,0
2017-12-13T15:55:46.478Z,0
2017-12-13T15:56:55.176Z,0
2017-12-13T15:58:04.413Z,0
2017-12-13T15:59:13.621Z,0
2017-12-13T16:00:22.612Z,0
2017-12-13T16:01:31.587Z,0
2017-12-13T16:02:40.806Z,0
2017-12-13T16:03:50.018Z,0
2017-12-13T16:04:58.713Z,0
2017-12-13T16:06:07.923Z,0
2017-12-13T16:07:16.883Z,0
2017-12-13T16:08:26.380Z,0
2017-12-13T16:09:35.601Z,0
2017-12-13T16:10:44.833Z,0
2017-12-13T16:11:53.804Z,0
2017-12-13T16:13:03.072Z,0
2017-12-13T16:14:12.313Z,0
2017-12-13T16:15:22.191Z,0
2017-12-13T16:16:31.160Z,0
2017-12-13T16:17:39.865Z,0
2017-12-13T16:18:48.649Z,0
2017-12-13T16:19:57.610Z,0
2017-12-13T16:21:06.548Z,0
2017-12-13T16:22:15.755Z,0
2017-12-13T16:23:24.969Z,0
2017-12-13T16:24:33.989Z,0
2017-12-13T16:25:43.459Z,0
2017-12-13T16:26:52.431Z,0
2017-12-13T16:28:01.704Z,0
2017-12-13T16:29:10.669Z,0
2017-12-13T16:30:19.652Z,0